sensor_id;sensor_type;location;lat;lon;timestamp;P1;durP1;ratioP1;P2;durP2;ratioP2
9106;SDS011;4589;48.690;8.952;2022-08-07T00:00:25;2.03;;;1.67;;
9106;SDS011;4589;48.690;8.952;2022-08-07T00:02:52;2.60;;;1.90;;
9106;SDS011;4589;48.690;8.952;2022-08-07T00:05:20;2.60;;;1.50;;
9106;SDS011;4589;48.690;8.952;2022-08-07T00:07:46;4.33;;;1.77;;
9106;SDS011;4589;48.690;8.952;2022-08-07T00:10:11;1.50;;;1.40;;
9106;SDS011;4589;48.690;8.952;2022-08-07T00:12:37;1.90;;;1.63;;
9106;SDS011;4589;48.690;8.952;2022-08-07T00:15:04;2.00;;;1.70;;
9106;SDS011;4589;48.690;8.952;2022-08-07T00:17:30;2.33;;;1.70;;
9106;SDS011;4589;48.690;8.952;2022-08-07T00:19:56;1.97;;;1.67;;
9106;SDS011;4589;48.690;8.952;2022-08-07T00:22:21;1.80;;;1.70;;
9106;SDS011;4589;48.690;8.952;2022-08-07T00:24:47;2.33;;;1.47;;
9106;SDS011;4589;48.690;8.952;2022-08-07T00:27:13;2.40;;;2.23;;
9106;SDS011;4589;48.690;8.952;2022-08-07T00:29:39;1.70;;;1.40;;
9106;SDS011;4589;48.690;8.952;2022-08-07T00:32:05;1.70;;;1.60;;
9106;SDS011;4589;48.690;8.952;2022-08-07T00:34:31;1.40;;;1.30;;
9106;SDS011;4589;48.690;8.952;2022-08-07T00:36:57;1.80;;;1.50;;
9106;SDS011;4589;48.690;8.952;2022-08-07T00:39:22;3.10;;;1.77;;
9106;SDS011;4589;48.690;8.952;2022-08-07T00:41:52;2.47;;;1.83;;
9106;SDS011;4589;48.690;8.952;2022-08-07T00:44:20;2.17;;;1.70;;
9106;SDS011;4589;48.690;8.952;2022-08-07T00:46:46;1.50;;;1.40;;
9106;SDS011;4589;48.690;8.952;2022-08-07T00:49:12;1.70;;;1.53;;
9106;SDS011;4589;48.690;8.952;2022-08-07T00:51:38;1.50;;;1.30;;
9106;SDS011;4589;48.690;8.952;2022-08-07T00:54:04;1.60;;;1.50;;
9106;SDS011;4589;48.690;8.952;2022-08-07T00:56:30;1.50;;;1.40;;
9106;SDS011;4589;48.690;8.952;2022-08-07T00:58:56;1.90;;;1.50;;
9106;SDS011;4589;48.690;8.952;2022-08-07T01:01:22;1.30;;;1.20;;
9106;SDS011;4589;48.690;8.952;2022-08-07T01:03:49;2.00;;;1.80;;
9106;SDS011;4589;48.690;8.952;2022-08-07T01:06:15;1.73;;;1.63;;
9106;SDS011;4589;48.690;8.952;2022-08-07T01:08:42;1.67;;;1.57;;
9106;SDS011;4589;48.690;8.952;2022-08-07T01:11:08;3.47;;;1.83;;
9106;SDS011;4589;48.690;8.952;2022-08-07T01:13:35;4.77;;;1.43;;
9106;SDS011;4589;48.690;8.952;2022-08-07T01:16:01;2.83;;;1.67;;
9106;SDS011;4589;48.690;8.952;2022-08-07T01:18:28;1.70;;;1.60;;
9106;SDS011;4589;48.690;8.952;2022-08-07T01:21:16;1.70;;;1.43;;
9106;SDS011;4589;48.690;8.952;2022-08-07T01:23:44;2.80;;;1.43;;
9106;SDS011;4589;48.690;8.952;2022-08-07T01:26:12;2.43;;;1.30;;
9106;SDS011;4589;48.690;8.952;2022-08-07T01:28:46;1.80;;;1.70;;
9106;SDS011;4589;48.690;8.952;2022-08-07T01:31:13;2.13;;;1.67;;
9106;SDS011;4589;48.690;8.952;2022-08-07T01:33:41;1.70;;;1.60;;
9106;SDS011;4589;48.690;8.952;2022-08-07T01:36:07;1.50;;;1.40;;
9106;SDS011;4589;48.690;8.952;2022-08-07T01:38:34;1.50;;;1.40;;
9106;SDS011;4589;48.690;8.952;2022-08-07T01:41:01;1.63;;;1.53;;
9106;SDS011;4589;48.690;8.952;2022-08-07T01:43:28;1.90;;;1.57;;
9106;SDS011;4589;48.690;8.952;2022-08-07T01:45:55;1.70;;;1.60;;
9106;SDS011;4589;48.690;8.952;2022-08-07T01:48:22;1.73;;;1.60;;
9106;SDS011;4589;48.690;8.952;2022-08-07T01:50:49;1.77;;;1.67;;
9106;SDS011;4589;48.690;8.952;2022-08-07T01:53:22;1.87;;;1.57;;
9106;SDS011;4589;48.690;8.952;2022-08-07T01:55:50;2.00;;;1.80;;
9106;SDS011;4589;48.690;8.952;2022-08-07T01:58:22;1.80;;;1.70;;
9106;SDS011;4589;48.690;8.952;2022-08-07T02:00:53;4.30;;;1.67;;
9106;SDS011;4589;48.690;8.952;2022-08-07T02:03:27;4.60;;;1.80;;
9106;SDS011;4589;48.690;8.952;2022-08-07T02:06:06;1.90;;;1.80;;
9106;SDS011;4589;48.690;8.952;2022-08-07T02:08:37;1.60;;;1.20;;
9106;SDS011;4589;48.690;8.952;2022-08-07T02:11:05;1.70;;;1.60;;
9106;SDS011;4589;48.690;8.952;2022-08-07T02:13:32;6.23;;;1.80;;
9106;SDS011;4589;48.690;8.952;2022-08-07T02:15:59;2.33;;;1.40;;
9106;SDS011;4589;48.690;8.952;2022-08-07T02:18:28;1.53;;;1.40;;
9106;SDS011;4589;48.690;8.952;2022-08-07T02:20:56;1.53;;;1.43;;
9106;SDS011;4589;48.690;8.952;2022-08-07T02:23:22;1.57;;;1.47;;
9106;SDS011;4589;48.690;8.952;2022-08-07T02:25:49;4.30;;;1.30;;
9106;SDS011;4589;48.690;8.952;2022-08-07T02:28:17;1.67;;;1.50;;
9106;SDS011;4589;48.690;8.952;2022-08-07T02:30:44;2.03;;;1.77;;
9106;SDS011;4589;48.690;8.952;2022-08-07T02:33:10;2.10;;;1.90;;
9106;SDS011;4589;48.690;8.952;2022-08-07T02:35:37;2.10;;;1.60;;
9106;SDS011;4589;48.690;8.952;2022-08-07T02:38:04;2.13;;;1.93;;
9106;SDS011;4589;48.690;8.952;2022-08-07T02:40:32;2.27;;;1.57;;
9106;SDS011;4589;48.690;8.952;2022-08-07T02:42:59;3.50;;;1.90;;
9106;SDS011;4589;48.690;8.952;2022-08-07T02:45:27;2.80;;;1.47;;
9106;SDS011;4589;48.690;8.952;2022-08-07T02:47:54;2.73;;;1.70;;
9106;SDS011;4589;48.690;8.952;2022-08-07T02:50:20;1.83;;;1.70;;
9106;SDS011;4589;48.690;8.952;2022-08-07T02:52:49;1.63;;;1.53;;
9106;SDS011;4589;48.690;8.952;2022-08-07T02:55:20;2.23;;;1.83;;
9106;SDS011;4589;48.690;8.952;2022-08-07T02:57:47;1.77;;;1.57;;
9106;SDS011;4589;48.690;8.952;2022-08-07T03:00:15;1.53;;;1.43;;
9106;SDS011;4589;48.690;8.952;2022-08-07T03:02:42;5.83;;;2.47;;
9106;SDS011;4589;48.690;8.952;2022-08-07T03:05:11;1.70;;;1.60;;
9106;SDS011;4589;48.690;8.952;2022-08-07T03:07:38;2.10;;;1.90;;
9106;SDS011;4589;48.690;8.952;2022-08-07T03:10:06;3.13;;;1.80;;
9106;SDS011;4589;48.690;8.952;2022-08-07T03:12:33;1.60;;;1.43;;
9106;SDS011;4589;48.690;8.952;2022-08-07T03:14:59;2.23;;;1.57;;
9106;SDS011;4589;48.690;8.952;2022-08-07T03:17:25;2.23;;;1.50;;
9106;SDS011;4589;48.690;8.952;2022-08-07T03:19:52;1.90;;;1.70;;
9106;SDS011;4589;48.690;8.952;2022-08-07T03:22:18;1.60;;;1.40;;
9106;SDS011;4589;48.690;8.952;2022-08-07T03:24:46;2.23;;;1.40;;
9106;SDS011;4589;48.690;8.952;2022-08-07T03:27:12;2.70;;;1.77;;
9106;SDS011;4589;48.690;8.952;2022-08-07T03:29:45;3.10;;;1.67;;
9106;SDS011;4589;48.690;8.952;2022-08-07T03:32:13;2.43;;;1.30;;
9106;SDS011;4589;48.690;8.952;2022-08-07T03:34:44;2.00;;;1.80;;
9106;SDS011;4589;48.690;8.952;2022-08-07T03:37:11;1.83;;;1.70;;
9106;SDS011;4589;48.690;8.952;2022-08-07T03:39:37;2.00;;;1.80;;
9106;SDS011;4589;48.690;8.952;2022-08-07T03:42:04;1.77;;;1.67;;
9106;SDS011;4589;48.690;8.952;2022-08-07T03:44:31;1.93;;;1.67;;
9106;SDS011;4589;48.690;8.952;2022-08-07T03:46:59;2.10;;;1.70;;
9106;SDS011;4589;48.690;8.952;2022-08-07T03:49:26;5.03;;;3.83;;
9106;SDS011;4589;48.690;8.952;2022-08-07T03:51:52;16.20;;;12.50;;
9106;SDS011;4589;48.690;8.952;2022-08-07T03:54:19;20.83;;;15.30;;
9106;SDS011;4589;48.690;8.952;2022-08-07T03:56:45;16.87;;;12.57;;
9106;SDS011;4589;48.690;8.952;2022-08-07T03:59:11;6.60;;;5.33;;
9106;SDS011;4589;48.690;8.952;2022-08-07T04:01:41;13.30;;;6.90;;
9106;SDS011;4589;48.690;8.952;2022-08-07T04:04:08;5.40;;;4.40;;
9106;SDS011;4589;48.690;8.952;2022-08-07T04:06:35;6.23;;;4.70;;
9106;SDS011;4589;48.690;8.952;2022-08-07T04:09:02;6.00;;;5.40;;
9106;SDS011;4589;48.690;8.952;2022-08-07T04:11:28;3.63;;;3.10;;
9106;SDS011;4589;48.690;8.952;2022-08-07T04:13:55;2.83;;;2.60;;
9106;SDS011;4589;48.690;8.952;2022-08-07T04:16:22;6.77;;;2.97;;
9106;SDS011;4589;48.690;8.952;2022-08-07T04:18:48;6.67;;;3.40;;
9106;SDS011;4589;48.690;8.952;2022-08-07T04:21:14;9.07;;;3.77;;
9106;SDS011;4589;48.690;8.952;2022-08-07T04:23:40;3.63;;;2.23;;
9106;SDS011;4589;48.690;8.952;2022-08-07T04:26:06;2.93;;;1.97;;
9106;SDS011;4589;48.690;8.952;2022-08-07T04:28:32;2.00;;;1.80;;
9106;SDS011;4589;48.690;8.952;2022-08-07T04:30:58;2.27;;;1.90;;
9106;SDS011;4589;48.690;8.952;2022-08-07T04:33:25;2.00;;;1.77;;
9106;SDS011;4589;48.690;8.952;2022-08-07T04:35:51;1.60;;;1.50;;
9106;SDS011;4589;48.690;8.952;2022-08-07T04:38:17;2.90;;;1.80;;
9106;SDS011;4589;48.690;8.952;2022-08-07T04:40:44;3.10;;;2.20;;
9106;SDS011;4589;48.690;8.952;2022-08-07T04:43:10;2.83;;;2.10;;
9106;SDS011;4589;48.690;8.952;2022-08-07T04:45:48;5.00;;;2.00;;
9106;SDS011;4589;48.690;8.952;2022-08-07T04:51:06;3.53;;;3.10;;
9106;SDS011;4589;48.690;8.952;2022-08-07T04:53:43;4.37;;;2.90;;
9106;SDS011;4589;48.690;8.952;2022-08-07T04:58:46;2.40;;;2.10;;
9106;SDS011;4589;48.690;8.952;2022-08-07T05:04:30;2.90;;;1.90;;
9106;SDS011;4589;48.690;8.952;2022-08-07T05:07:19;2.10;;;1.90;;
9106;SDS011;4589;48.690;8.952;2022-08-07T05:13:07;2.13;;;1.70;;
9106;SDS011;4589;48.690;8.952;2022-08-07T05:15:41;1.63;;;1.53;;
9106;SDS011;4589;48.690;8.952;2022-08-07T05:18:15;2.33;;;1.83;;
9106;SDS011;4589;48.690;8.952;2022-08-07T05:20:45;1.90;;;1.70;;
9106;SDS011;4589;48.690;8.952;2022-08-07T05:23:18;2.27;;;1.63;;
9106;SDS011;4589;48.690;8.952;2022-08-07T05:25:46;2.07;;;1.87;;
9106;SDS011;4589;48.690;8.952;2022-08-07T05:28:13;1.80;;;1.70;;
9106;SDS011;4589;48.690;8.952;2022-08-07T05:30:40;2.97;;;2.03;;
9106;SDS011;4589;48.690;8.952;2022-08-07T05:33:07;2.77;;;1.60;;
9106;SDS011;4589;48.690;8.952;2022-08-07T05:35:34;1.93;;;1.73;;
9106;SDS011;4589;48.690;8.952;2022-08-07T05:38:01;1.77;;;1.67;;
9106;SDS011;4589;48.690;8.952;2022-08-07T05:40:30;1.90;;;1.80;;
9106;SDS011;4589;48.690;8.952;2022-08-07T05:42:56;2.70;;;1.80;;
9106;SDS011;4589;48.690;8.952;2022-08-07T05:45:22;2.63;;;1.60;;
9106;SDS011;4589;48.690;8.952;2022-08-07T05:47:50;2.60;;;1.80;;
9106;SDS011;4589;48.690;8.952;2022-08-07T05:50:17;2.90;;;2.10;;
9106;SDS011;4589;48.690;8.952;2022-08-07T05:52:44;2.00;;;1.87;;
9106;SDS011;4589;48.690;8.952;2022-08-07T05:55:10;2.03;;;1.93;;
9106;SDS011;4589;48.690;8.952;2022-08-07T05:57:36;1.60;;;1.50;;
9106;SDS011;4589;48.690;8.952;2022-08-07T06:00:04;2.33;;;2.13;;
9106;SDS011;4589;48.690;8.952;2022-08-07T06:02:32;2.80;;;1.90;;
9106;SDS011;4589;48.690;8.952;2022-08-07T06:05:09;3.10;;;1.80;;
9106;SDS011;4589;48.690;8.952;2022-08-07T06:07:36;2.50;;;2.23;;
9106;SDS011;4589;48.690;8.952;2022-08-07T06:10:02;4.13;;;1.90;;
9106;SDS011;4589;48.690;8.952;2022-08-07T06:12:29;2.77;;;2.07;;
9106;SDS011;4589;48.690;8.952;2022-08-07T06:14:55;2.60;;;2.40;;
9106;SDS011;4589;48.690;8.952;2022-08-07T06:17:22;1.90;;;1.77;;
9106;SDS011;4589;48.690;8.952;2022-08-07T06:19:48;2.70;;;2.03;;
9106;SDS011;4589;48.690;8.952;2022-08-07T06:22:15;3.00;;;2.80;;
9106;SDS011;4589;48.690;8.952;2022-08-07T06:24:42;3.07;;;2.60;;
9106;SDS011;4589;48.690;8.952;2022-08-07T06:27:07;3.47;;;2.70;;
9106;SDS011;4589;48.690;8.952;2022-08-07T06:29:33;3.00;;;2.80;;
9106;SDS011;4589;48.690;8.952;2022-08-07T06:31:59;3.07;;;2.87;;
9106;SDS011;4589;48.690;8.952;2022-08-07T06:34:25;3.60;;;3.30;;
9106;SDS011;4589;48.690;8.952;2022-08-07T06:36:52;3.27;;;2.97;;
9106;SDS011;4589;48.690;8.952;2022-08-07T06:39:18;3.77;;;3.47;;
9106;SDS011;4589;48.690;8.952;2022-08-07T06:41:47;4.40;;;3.20;;
9106;SDS011;4589;48.690;8.952;2022-08-07T06:44:20;3.20;;;3.00;;
9106;SDS011;4589;48.690;8.952;2022-08-07T06:46:47;3.90;;;3.60;;
9106;SDS011;4589;48.690;8.952;2022-08-07T06:49:13;3.50;;;3.10;;
9106;SDS011;4589;48.690;8.952;2022-08-07T06:51:39;3.20;;;2.90;;
9106;SDS011;4589;48.690;8.952;2022-08-07T06:54:09;4.00;;;3.50;;
9106;SDS011;4589;48.690;8.952;2022-08-07T06:56:36;3.70;;;3.40;;
9106;SDS011;4589;48.690;8.952;2022-08-07T06:59:07;3.63;;;3.33;;
9106;SDS011;4589;48.690;8.952;2022-08-07T07:01:35;3.30;;;3.10;;
9106;SDS011;4589;48.690;8.952;2022-08-07T07:04:03;4.00;;;3.57;;
9106;SDS011;4589;48.690;8.952;2022-08-07T07:06:30;5.20;;;3.70;;
9106;SDS011;4589;48.690;8.952;2022-08-07T07:09:14;3.40;;;3.00;;
9106;SDS011;4589;48.690;8.952;2022-08-07T07:11:40;3.53;;;3.23;;
9106;SDS011;4589;48.690;8.952;2022-08-07T07:14:11;5.50;;;3.40;;
9106;SDS011;4589;48.690;8.952;2022-08-07T07:16:39;3.03;;;2.77;;
9106;SDS011;4589;48.690;8.952;2022-08-07T07:19:07;3.03;;;2.83;;
9106;SDS011;4589;48.690;8.952;2022-08-07T07:21:35;2.83;;;2.63;;
9106;SDS011;4589;48.690;8.952;2022-08-07T07:24:04;3.40;;;3.10;;
9106;SDS011;4589;48.690;8.952;2022-08-07T07:26:32;3.60;;;2.97;;
9106;SDS011;4589;48.690;8.952;2022-08-07T07:29:02;2.77;;;2.57;;
9106;SDS011;4589;48.690;8.952;2022-08-07T07:31:33;5.23;;;2.67;;
9106;SDS011;4589;48.690;8.952;2022-08-07T07:34:05;2.80;;;2.60;;
9106;SDS011;4589;48.690;8.952;2022-08-07T07:36:33;2.63;;;2.43;;
9106;SDS011;4589;48.690;8.952;2022-08-07T07:39:02;2.43;;;2.23;;
9106;SDS011;4589;48.690;8.952;2022-08-07T07:41:29;2.13;;;2.00;;
9106;SDS011;4589;48.690;8.952;2022-08-07T07:43:57;2.67;;;2.47;;
9106;SDS011;4589;48.690;8.952;2022-08-07T07:46:25;2.60;;;2.10;;
9106;SDS011;4589;48.690;8.952;2022-08-07T07:48:54;2.40;;;2.20;;
9106;SDS011;4589;48.690;8.952;2022-08-07T07:51:20;2.60;;;2.20;;
9106;SDS011;4589;48.690;8.952;2022-08-07T07:53:46;4.33;;;1.80;;
9106;SDS011;4589;48.690;8.952;2022-08-07T07:56:14;2.10;;;1.90;;
9106;SDS011;4589;48.690;8.952;2022-08-07T07:58:41;2.13;;;1.93;;
9106;SDS011;4589;48.690;8.952;2022-08-07T08:01:08;3.63;;;2.10;;
9106;SDS011;4589;48.690;8.952;2022-08-07T08:03:35;2.70;;;1.97;;
9106;SDS011;4589;48.690;8.952;2022-08-07T08:06:02;1.60;;;1.50;;
9106;SDS011;4589;48.690;8.952;2022-08-07T08:08:30;2.00;;;1.80;;
9106;SDS011;4589;48.690;8.952;2022-08-07T08:10:56;2.40;;;1.90;;
9106;SDS011;4589;48.690;8.952;2022-08-07T08:13:23;2.07;;;1.53;;
9106;SDS011;4589;48.690;8.952;2022-08-07T08:15:51;2.60;;;1.50;;
9106;SDS011;4589;48.690;8.952;2022-08-07T08:18:17;1.63;;;1.53;;
9106;SDS011;4589;48.690;8.952;2022-08-07T08:20:45;4.10;;;1.90;;
9106;SDS011;4589;48.690;8.952;2022-08-07T08:23:12;1.80;;;1.30;;
9106;SDS011;4589;48.690;8.952;2022-08-07T08:26:00;1.60;;;1.50;;
9106;SDS011;4589;48.690;8.952;2022-08-07T08:28:51;1.40;;;1.30;;
9106;SDS011;4589;48.690;8.952;2022-08-07T08:31:22;2.30;;;1.60;;
9106;SDS011;4589;48.690;8.952;2022-08-07T08:33:52;1.67;;;1.50;;
9106;SDS011;4589;48.690;8.952;2022-08-07T08:36:19;1.90;;;1.67;;
9106;SDS011;4589;48.690;8.952;2022-08-07T08:38:51;1.70;;;1.53;;
9106;SDS011;4589;48.690;8.952;2022-08-07T08:46:45;1.60;;;1.40;;
9106;SDS011;4589;48.690;8.952;2022-08-07T08:49:26;3.20;;;1.60;;
9106;SDS011;4589;48.690;8.952;2022-08-07T08:52:17;3.20;;;2.00;;
9106;SDS011;4589;48.690;8.952;2022-08-07T08:54:55;1.80;;;1.33;;
9106;SDS011;4589;48.690;8.952;2022-08-07T08:57:43;1.60;;;1.50;;
9106;SDS011;4589;48.690;8.952;2022-08-07T09:00:29;1.63;;;1.50;;
9106;SDS011;4589;48.690;8.952;2022-08-07T09:03:05;1.60;;;1.40;;
9106;SDS011;4589;48.690;8.952;2022-08-07T09:05:58;1.70;;;1.50;;
9106;SDS011;4589;48.690;8.952;2022-08-07T09:09:05;3.23;;;1.50;;
9106;SDS011;4589;48.690;8.952;2022-08-07T09:12:03;1.87;;;1.50;;
9106;SDS011;4589;48.690;8.952;2022-08-07T09:14:38;2.03;;;1.60;;
9106;SDS011;4589;48.690;8.952;2022-08-07T09:20:32;1.77;;;1.67;;
9106;SDS011;4589;48.690;8.952;2022-08-07T09:26:09;1.60;;;1.50;;
9106;SDS011;4589;48.690;8.952;2022-08-07T09:28:39;2.03;;;1.47;;
9106;SDS011;4589;48.690;8.952;2022-08-07T09:34:19;1.40;;;1.30;;
9106;SDS011;4589;48.690;8.952;2022-08-07T09:37:27;3.80;;;1.47;;
9106;SDS011;4589;48.690;8.952;2022-08-07T09:40:02;1.60;;;1.50;;
9106;SDS011;4589;48.690;8.952;2022-08-07T09:42:46;2.03;;;1.37;;
9106;SDS011;4589;48.690;8.952;2022-08-07T09:45:42;2.17;;;1.60;;
9106;SDS011;4589;48.690;8.952;2022-08-07T09:48:22;1.60;;;1.50;;
9106;SDS011;4589;48.690;8.952;2022-08-07T09:53:54;1.63;;;1.37;;
9106;SDS011;4589;48.690;8.952;2022-08-07T09:59:35;1.70;;;1.53;;
9106;SDS011;4589;48.690;8.952;2022-08-07T10:10:17;1.30;;;1.20;;
9106;SDS011;4589;48.690;8.952;2022-08-07T10:13:10;1.40;;;1.10;;
9106;SDS011;4589;48.690;8.952;2022-08-07T10:19:07;1.20;;;1.10;;
9106;SDS011;4589;48.690;8.952;2022-08-07T10:22:05;1.53;;;1.20;;
9106;SDS011;4589;48.690;8.952;2022-08-07T10:29:46;1.63;;;1.20;;
9106;SDS011;4589;48.690;8.952;2022-08-07T10:40:24;1.67;;;1.30;;
9106;SDS011;4589;48.690;8.952;2022-08-07T10:42:59;1.40;;;1.30;;
9106;SDS011;4589;48.690;8.952;2022-08-07T10:45:37;1.97;;;1.37;;
9106;SDS011;4589;48.690;8.952;2022-08-07T10:48:11;1.50;;;1.40;;
9106;SDS011;4589;48.690;8.952;2022-08-07T10:50:54;1.47;;;1.23;;
9106;SDS011;4589;48.690;8.952;2022-08-07T10:53:35;6.93;;;1.60;;
9106;SDS011;4589;48.690;8.952;2022-08-07T10:58:55;1.20;;;1.07;;
9106;SDS011;4589;48.690;8.952;2022-08-07T11:10:39;4.87;;;1.47;;
9106;SDS011;4589;48.690;8.952;2022-08-07T11:16:05;2.03;;;1.10;;
9106;SDS011;4589;48.690;8.952;2022-08-07T11:18:40;1.40;;;1.17;;
9106;SDS011;4589;48.690;8.952;2022-08-07T11:21:28;1.27;;;1.00;;
9106;SDS011;4589;48.690;8.952;2022-08-07T11:24:06;1.47;;;1.10;;
9106;SDS011;4589;48.690;8.952;2022-08-07T11:26:56;1.40;;;1.10;;
9106;SDS011;4589;48.690;8.952;2022-08-07T11:29:37;1.20;;;1.10;;
9106;SDS011;4589;48.690;8.952;2022-08-07T11:34:52;1.40;;;1.30;;
9106;SDS011;4589;48.690;8.952;2022-08-07T11:40:40;2.03;;;1.20;;
9106;SDS011;4589;48.690;8.952;2022-08-07T11:43:23;1.50;;;1.17;;
9106;SDS011;4589;48.690;8.952;2022-08-07T12:00:14;2.67;;;1.50;;
9106;SDS011;4589;48.690;8.952;2022-08-07T12:02:59;1.73;;;1.20;;
9106;SDS011;4589;48.690;8.952;2022-08-07T12:08:57;1.30;;;1.20;;
9106;SDS011;4589;48.690;8.952;2022-08-07T12:11:33;1.67;;;1.50;;
9106;SDS011;4589;48.690;8.952;2022-08-07T12:14:12;4.30;;;1.43;;
9106;SDS011;4589;48.690;8.952;2022-08-07T12:16:45;3.00;;;1.20;;
9106;SDS011;4589;48.690;8.952;2022-08-07T12:22:05;5.60;;;1.37;;
9106;SDS011;4589;48.690;8.952;2022-08-07T12:27:32;1.30;;;1.20;;
9106;SDS011;4589;48.690;8.952;2022-08-07T12:30:04;1.53;;;1.43;;
9106;SDS011;4589;48.690;8.952;2022-08-07T12:32:41;2.73;;;1.93;;
9106;SDS011;4589;48.690;8.952;2022-08-07T12:35:14;1.20;;;1.10;;
9106;SDS011;4589;48.690;8.952;2022-08-07T12:37:41;1.10;;;1.00;;
9106;SDS011;4589;48.690;8.952;2022-08-07T12:40:10;2.77;;;1.17;;
9106;SDS011;4589;48.690;8.952;2022-08-07T12:42:37;1.40;;;1.27;;
9106;SDS011;4589;48.690;8.952;2022-08-07T12:45:11;2.07;;;1.10;;
9106;SDS011;4589;48.690;8.952;2022-08-07T12:50:51;1.90;;;1.10;;
9106;SDS011;4589;48.690;8.952;2022-08-07T12:53:41;1.23;;;1.10;;
9106;SDS011;4589;48.690;8.952;2022-08-07T12:58:51;1.67;;;1.40;;
9106;SDS011;4589;48.690;8.952;2022-08-07T13:01:28;1.33;;;1.23;;
9106;SDS011;4589;48.690;8.952;2022-08-07T13:04:08;3.23;;;2.90;;
9106;SDS011;4589;48.690;8.952;2022-08-07T13:07:21;2.80;;;1.57;;
9106;SDS011;4589;48.690;8.952;2022-08-07T13:13:02;2.10;;;1.40;;
9106;SDS011;4589;48.690;8.952;2022-08-07T13:15:49;1.57;;;1.27;;
9106;SDS011;4589;48.690;8.952;2022-08-07T13:24:06;3.20;;;1.20;;
9106;SDS011;4589;48.690;8.952;2022-08-07T13:26:45;2.13;;;1.40;;
9106;SDS011;4589;48.690;8.952;2022-08-07T13:29:23;2.80;;;1.30;;
9106;SDS011;4589;48.690;8.952;2022-08-07T13:32:04;1.40;;;1.30;;
9106;SDS011;4589;48.690;8.952;2022-08-07T13:35:11;1.53;;;1.40;;
9106;SDS011;4589;48.690;8.952;2022-08-07T13:41:10;2.07;;;1.50;;
9106;SDS011;4589;48.690;8.952;2022-08-07T13:43:46;2.70;;;1.47;;
9106;SDS011;4589;48.690;8.952;2022-08-07T13:46:14;2.43;;;1.30;;
9106;SDS011;4589;48.690;8.952;2022-08-07T13:48:45;1.60;;;1.50;;
9106;SDS011;4589;48.690;8.952;2022-08-07T13:51:16;1.60;;;1.50;;
9106;SDS011;4589;48.690;8.952;2022-08-07T13:53:45;1.30;;;1.20;;
9106;SDS011;4589;48.690;8.952;2022-08-07T13:56:17;1.63;;;1.53;;
9106;SDS011;4589;48.690;8.952;2022-08-07T13:58:45;1.60;;;1.50;;
9106;SDS011;4589;48.690;8.952;2022-08-07T14:01:28;1.60;;;1.47;;
9106;SDS011;4589;48.690;8.952;2022-08-07T14:04:02;2.63;;;1.50;;
9106;SDS011;4589;48.690;8.952;2022-08-07T14:06:34;2.10;;;1.37;;
9106;SDS011;4589;48.690;8.952;2022-08-07T14:09:03;1.33;;;1.23;;
9106;SDS011;4589;48.690;8.952;2022-08-07T14:11:30;1.87;;;1.47;;
9106;SDS011;4589;48.690;8.952;2022-08-07T14:14:02;1.47;;;1.37;;
9106;SDS011;4589;48.690;8.952;2022-08-07T14:16:32;2.17;;;1.30;;
9106;SDS011;4589;48.690;8.952;2022-08-07T14:19:02;1.60;;;1.40;;
9106;SDS011;4589;48.690;8.952;2022-08-07T14:21:38;1.30;;;1.10;;
9106;SDS011;4589;48.690;8.952;2022-08-07T14:24:08;1.67;;;1.40;;
9106;SDS011;4589;48.690;8.952;2022-08-07T14:26:59;1.67;;;1.50;;
9106;SDS011;4589;48.690;8.952;2022-08-07T14:29:28;1.47;;;1.37;;
9106;SDS011;4589;48.690;8.952;2022-08-07T14:31:59;2.40;;;1.47;;
9106;SDS011;4589;48.690;8.952;2022-08-07T14:34:28;1.40;;;1.30;;
9106;SDS011;4589;48.690;8.952;2022-08-07T14:36:58;1.77;;;1.67;;
9106;SDS011;4589;48.690;8.952;2022-08-07T14:39:24;1.90;;;1.47;;
9106;SDS011;4589;48.690;8.952;2022-08-07T14:41:51;1.53;;;1.43;;
9106;SDS011;4589;48.690;8.952;2022-08-07T14:44:17;1.60;;;1.50;;
9106;SDS011;4589;48.690;8.952;2022-08-07T14:46:45;1.77;;;1.67;;
9106;SDS011;4589;48.690;8.952;2022-08-07T14:49:13;1.43;;;1.33;;
9106;SDS011;4589;48.690;8.952;2022-08-07T14:51:41;3.00;;;2.80;;
9106;SDS011;4589;48.690;8.952;2022-08-07T14:54:07;3.00;;;1.63;;
9106;SDS011;4589;48.690;8.952;2022-08-07T14:56:39;2.83;;;1.50;;
9106;SDS011;4589;48.690;8.952;2022-08-07T14:59:08;2.93;;;2.40;;
9106;SDS011;4589;48.690;8.952;2022-08-07T15:01:37;2.00;;;1.70;;
9106;SDS011;4589;48.690;8.952;2022-08-07T15:04:05;2.53;;;1.47;;
9106;SDS011;4589;48.690;8.952;2022-08-07T15:06:33;1.50;;;1.23;;
9106;SDS011;4589;48.690;8.952;2022-08-07T15:09:11;2.20;;;2.00;;
9106;SDS011;4589;48.690;8.952;2022-08-07T15:11:42;2.90;;;2.33;;
9106;SDS011;4589;48.690;8.952;2022-08-07T15:14:22;2.80;;;2.43;;
9106;SDS011;4589;48.690;8.952;2022-08-07T15:19:28;1.87;;;1.77;;
9106;SDS011;4589;48.690;8.952;2022-08-07T15:21:58;1.50;;;1.40;;
9106;SDS011;4589;48.690;8.952;2022-08-07T15:24:30;1.63;;;1.53;;
9106;SDS011;4589;48.690;8.952;2022-08-07T15:26:57;2.33;;;1.70;;
9106;SDS011;4589;48.690;8.952;2022-08-07T15:29:34;1.97;;;1.30;;
9106;SDS011;4589;48.690;8.952;2022-08-07T15:32:04;1.77;;;1.67;;
9106;SDS011;4589;48.690;8.952;2022-08-07T15:34:43;1.60;;;1.40;;
9106;SDS011;4589;48.690;8.952;2022-08-07T15:37:16;1.53;;;1.43;;
9106;SDS011;4589;48.690;8.952;2022-08-07T15:39:46;1.70;;;1.60;;
9106;SDS011;4589;48.690;8.952;2022-08-07T15:47:49;1.67;;;1.57;;
9106;SDS011;4589;48.690;8.952;2022-08-07T15:50:19;2.90;;;1.60;;
9106;SDS011;4589;48.690;8.952;2022-08-07T15:52:50;1.63;;;1.53;;
9106;SDS011;4589;48.690;8.952;2022-08-07T15:55:20;1.93;;;1.40;;
9106;SDS011;4589;48.690;8.952;2022-08-07T15:57:50;1.63;;;1.40;;
9106;SDS011;4589;48.690;8.952;2022-08-07T16:00:18;3.60;;;1.60;;
9106;SDS011;4589;48.690;8.952;2022-08-07T16:02:45;2.10;;;1.43;;
9106;SDS011;4589;48.690;8.952;2022-08-07T16:05:19;2.37;;;1.70;;
9106;SDS011;4589;48.690;8.952;2022-08-07T16:08:02;1.97;;;1.50;;
9106;SDS011;4589;48.690;8.952;2022-08-07T16:10:32;1.43;;;1.33;;
9106;SDS011;4589;48.690;8.952;2022-08-07T16:15:37;1.73;;;1.63;;
9106;SDS011;4589;48.690;8.952;2022-08-07T16:23:17;1.70;;;1.53;;
9106;SDS011;4589;48.690;8.952;2022-08-07T16:33:48;2.30;;;1.40;;
9106;SDS011;4589;48.690;8.952;2022-08-07T16:36:27;1.60;;;1.50;;
9106;SDS011;4589;48.690;8.952;2022-08-07T16:42:11;3.77;;;1.67;;
9106;SDS011;4589;48.690;8.952;2022-08-07T16:44:50;2.07;;;1.30;;
9106;SDS011;4589;48.690;8.952;2022-08-07T16:53:01;2.37;;;1.40;;
9106;SDS011;4589;48.690;8.952;2022-08-07T17:06:49;1.70;;;1.60;;
9106;SDS011;4589;48.690;8.952;2022-08-07T17:11:55;3.33;;;1.60;;
9106;SDS011;4589;48.690;8.952;2022-08-07T17:17:07;2.53;;;1.40;;
9106;SDS011;4589;48.690;8.952;2022-08-07T17:19:50;1.70;;;1.57;;
9106;SDS011;4589;48.690;8.952;2022-08-07T17:22:29;1.93;;;1.50;;
9106;SDS011;4589;48.690;8.952;2022-08-07T17:28:08;1.50;;;1.33;;
9106;SDS011;4589;48.690;8.952;2022-08-07T17:30:41;1.70;;;1.50;;
9106;SDS011;4589;48.690;8.952;2022-08-07T17:38:15;2.37;;;1.60;;
9106;SDS011;4589;48.690;8.952;2022-08-07T17:43:42;1.63;;;1.53;;
9106;SDS011;4589;48.690;8.952;2022-08-07T17:46:18;1.70;;;1.60;;
9106;SDS011;4589;48.690;8.952;2022-08-07T17:49:04;1.60;;;1.50;;
9106;SDS011;4589;48.690;8.952;2022-08-07T17:51:51;2.70;;;1.60;;
9106;SDS011;4589;48.690;8.952;2022-08-07T17:54:29;1.40;;;1.30;;
9106;SDS011;4589;48.690;8.952;2022-08-07T18:00:07;2.53;;;1.70;;
9106;SDS011;4589;48.690;8.952;2022-08-07T18:07:43;1.50;;;1.40;;
9106;SDS011;4589;48.690;8.952;2022-08-07T18:10:18;1.97;;;1.83;;
9106;SDS011;4589;48.690;8.952;2022-08-07T18:15:24;2.73;;;1.87;;
9106;SDS011;4589;48.690;8.952;2022-08-07T18:17:58;1.50;;;1.40;;
9106;SDS011;4589;48.690;8.952;2022-08-07T18:20:28;3.13;;;1.73;;
9106;SDS011;4589;48.690;8.952;2022-08-07T18:23:06;1.93;;;1.70;;
9106;SDS011;4589;48.690;8.952;2022-08-07T18:25:34;1.60;;;1.40;;
9106;SDS011;4589;48.690;8.952;2022-08-07T18:28:18;2.37;;;1.50;;
9106;SDS011;4589;48.690;8.952;2022-08-07T18:36:38;2.20;;;1.77;;
9106;SDS011;4589;48.690;8.952;2022-08-07T18:42:09;1.60;;;1.50;;
9106;SDS011;4589;48.690;8.952;2022-08-07T18:45:07;1.70;;;1.60;;
9106;SDS011;4589;48.690;8.952;2022-08-07T18:47:53;2.13;;;1.67;;
9106;SDS011;4589;48.690;8.952;2022-08-07T18:52:50;3.13;;;1.47;;
9106;SDS011;4589;48.690;8.952;2022-08-07T18:58:18;1.70;;;1.40;;
9106;SDS011;4589;48.690;8.952;2022-08-07T19:04:20;1.70;;;1.57;;
9106;SDS011;4589;48.690;8.952;2022-08-07T19:09:18;2.40;;;1.73;;
9106;SDS011;4589;48.690;8.952;2022-08-07T19:12:06;2.20;;;1.40;;